sensor_id;sensor_type;location;lat;lon;timestamp;P1;durP1;ratioP1;P2;durP2;ratioP2
61054;SDS011;46939;48.940;8.258;2022-12-07T00:01:44;15.35;;;8.30;;
61054;SDS011;46939;48.940;8.258;2022-12-07T00:04:14;18.63;;;9.38;;
61054;SDS011;46939;48.940;8.258;2022-12-07T00:06:50;15.90;;;8.70;;
61054;SDS011;46939;48.940;8.258;2022-12-07T00:09:20;14.40;;;8.20;;
61054;SDS011;46939;48.940;8.258;2022-12-07T00:11:49;15.93;;;8.93;;
61054;SDS011;46939;48.940;8.258;2022-12-07T00:14:19;19.83;;;9.48;;
61054;SDS011;46939;48.940;8.258;2022-12-07T00:16:49;15.65;;;9.07;;
61054;SDS011;46939;48.940;8.258;2022-12-07T00:19:18;13.98;;;8.00;;
61054;SDS011;46939;48.940;8.258;2022-12-07T00:21:49;16.60;;;8.80;;
61054;SDS011;46939;48.940;8.258;2022-12-07T00:24:17;16.95;;;8.85;;
61054;SDS011;46939;48.940;8.258;2022-12-07T00:26:46;17.85;;;9.50;;
61054;SDS011;46939;48.940;8.258;2022-12-07T00:29:15;15.70;;;8.10;;
61054;SDS011;46939;48.940;8.258;2022-12-07T00:31:45;16.35;;;9.43;;
61054;SDS011;46939;48.940;8.258;2022-12-07T00:34:14;17.13;;;9.60;;
61054;SDS011;46939;48.940;8.258;2022-12-07T00:36:45;19.65;;;10.40;;
61054;SDS011;46939;48.940;8.258;2022-12-07T00:39:16;17.90;;;10.20;;
61054;SDS011;46939;48.940;8.258;2022-12-07T00:41:45;16.73;;;9.93;;
61054;SDS011;46939;48.940;8.258;2022-12-07T00:44:14;19.75;;;9.77;;
61054;SDS011;46939;48.940;8.258;2022-12-07T00:46:42;17.33;;;9.75;;
61054;SDS011;46939;48.940;8.258;2022-12-07T00:49:11;17.75;;;9.57;;
61054;SDS011;46939;48.940;8.258;2022-12-07T00:51:40;16.25;;;9.52;;
61054;SDS011;46939;48.940;8.258;2022-12-07T00:54:08;15.13;;;8.27;;
61054;SDS011;46939;48.940;8.258;2022-12-07T00:56:39;17.75;;;9.25;;
61054;SDS011;46939;48.940;8.258;2022-12-07T00:59:10;18.35;;;9.73;;
61054;SDS011;46939;48.940;8.258;2022-12-07T01:01:40;18.55;;;9.95;;
61054;SDS011;46939;48.940;8.258;2022-12-07T01:04:09;20.13;;;10.50;;
61054;SDS011;46939;48.940;8.258;2022-12-07T01:06:38;18.33;;;9.85;;
61054;SDS011;46939;48.940;8.258;2022-12-07T01:09:06;16.38;;;9.55;;
61054;SDS011;46939;48.940;8.258;2022-12-07T01:11:34;20.35;;;9.25;;
61054;SDS011;46939;48.940;8.258;2022-12-07T01:14:05;18.50;;;10.20;;
61054;SDS011;46939;48.940;8.258;2022-12-07T01:16:34;19.92;;;9.82;;
61054;SDS011;46939;48.940;8.258;2022-12-07T01:19:03;17.90;;;10.00;;
61054;SDS011;46939;48.940;8.258;2022-12-07T01:21:32;18.77;;;9.77;;
61054;SDS011;46939;48.940;8.258;2022-12-07T01:24:03;17.08;;;9.57;;
61054;SDS011;46939;48.940;8.258;2022-12-07T01:26:32;18.25;;;9.48;;
61054;SDS011;46939;48.940;8.258;2022-12-07T01:29:01;20.15;;;9.32;;
61054;SDS011;46939;48.940;8.258;2022-12-07T01:31:32;16.63;;;9.05;;
61054;SDS011;46939;48.940;8.258;2022-12-07T01:34:01;16.98;;;9.52;;
61054;SDS011;46939;48.940;8.258;2022-12-07T01:36:30;18.13;;;9.68;;
61054;SDS011;46939;48.940;8.258;2022-12-07T01:39:01;18.52;;;10.07;;
61054;SDS011;46939;48.940;8.258;2022-12-07T01:41:34;19.20;;;9.70;;
61054;SDS011;46939;48.940;8.258;2022-12-07T01:44:09;19.80;;;10.45;;
61054;SDS011;46939;48.940;8.258;2022-12-07T01:46:46;20.15;;;10.38;;
61054;SDS011;46939;48.940;8.258;2022-12-07T01:49:16;17.98;;;9.60;;
61054;SDS011;46939;48.940;8.258;2022-12-07T01:51:49;17.17;;;9.70;;
61054;SDS011;46939;48.940;8.258;2022-12-07T01:54:22;18.45;;;9.55;;
61054;SDS011;46939;48.940;8.258;2022-12-07T01:56:50;19.20;;;10.00;;
61054;SDS011;46939;48.940;8.258;2022-12-07T01:59:23;19.15;;;9.55;;
61054;SDS011;46939;48.940;8.258;2022-12-07T02:01:55;18.35;;;10.07;;
61054;SDS011;46939;48.940;8.258;2022-12-07T02:04:24;16.73;;;9.85;;
61054;SDS011;46939;48.940;8.258;2022-12-07T02:06:53;18.88;;;9.70;;
61054;SDS011;46939;48.940;8.258;2022-12-07T02:09:22;17.90;;;9.48;;
61054;SDS011;46939;48.940;8.258;2022-12-07T02:11:51;19.40;;;10.15;;
61054;SDS011;46939;48.940;8.258;2022-12-07T02:14:20;19.20;;;10.52;;
61054;SDS011;46939;48.940;8.258;2022-12-07T02:16:53;24.05;;;10.77;;
61054;SDS011;46939;48.940;8.258;2022-12-07T02:19:42;19.58;;;10.57;;
61054;SDS011;46939;48.940;8.258;2022-12-07T02:25:26;19.55;;;10.60;;
61054;SDS011;46939;48.940;8.258;2022-12-07T02:28:09;18.98;;;10.70;;
61054;SDS011;46939;48.940;8.258;2022-12-07T02:30:47;20.35;;;10.48;;
61054;SDS011;46939;48.940;8.258;2022-12-07T02:33:19;19.13;;;10.82;;
61054;SDS011;46939;48.940;8.258;2022-12-07T02:35:54;20.55;;;11.30;;
61054;SDS011;46939;48.940;8.258;2022-12-07T02:38:29;18.20;;;10.43;;
61054;SDS011;46939;48.940;8.258;2022-12-07T02:41:12;17.45;;;9.38;;
61054;SDS011;46939;48.940;8.258;2022-12-07T02:43:45;19.38;;;10.32;;
61054;SDS011;46939;48.940;8.258;2022-12-07T02:46:20;18.83;;;10.27;;
61054;SDS011;46939;48.940;8.258;2022-12-07T02:48:51;22.20;;;11.00;;
61054;SDS011;46939;48.940;8.258;2022-12-07T02:51:24;21.52;;;11.18;;
61054;SDS011;46939;48.940;8.258;2022-12-07T02:53:53;19.23;;;9.68;;
61054;SDS011;46939;48.940;8.258;2022-12-07T02:56:27;19.77;;;10.68;;
61054;SDS011;46939;48.940;8.258;2022-12-07T02:59:06;18.35;;;9.45;;
61054;SDS011;46939;48.940;8.258;2022-12-07T03:01:50;19.65;;;10.13;;
61054;SDS011;46939;48.940;8.258;2022-12-07T03:04:33;21.92;;;11.60;;
61054;SDS011;46939;48.940;8.258;2022-12-07T03:07:15;17.63;;;9.60;;
61054;SDS011;46939;48.940;8.258;2022-12-07T03:09:53;20.52;;;9.70;;
61054;SDS011;46939;48.940;8.258;2022-12-07T03:12:31;18.02;;;9.70;;
61054;SDS011;46939;48.940;8.258;2022-12-07T03:15:04;17.65;;;9.45;;
61054;SDS011;46939;48.940;8.258;2022-12-07T03:17:39;18.20;;;9.90;;
61054;SDS011;46939;48.940;8.258;2022-12-07T03:20:11;19.73;;;10.77;;
61054;SDS011;46939;48.940;8.258;2022-12-07T03:22:43;16.25;;;8.90;;
61054;SDS011;46939;48.940;8.258;2022-12-07T03:25:15;19.20;;;10.10;;
61054;SDS011;46939;48.940;8.258;2022-12-07T03:27:46;20.58;;;10.68;;
61054;SDS011;46939;48.940;8.258;2022-12-07T03:30:22;17.30;;;9.93;;
61054;SDS011;46939;48.940;8.258;2022-12-07T03:32:56;18.85;;;10.73;;
61054;SDS011;46939;48.940;8.258;2022-12-07T03:35:31;17.88;;;10.13;;
61054;SDS011;46939;48.940;8.258;2022-12-07T03:38:04;19.67;;;10.80;;
61054;SDS011;46939;48.940;8.258;2022-12-07T03:40:43;20.52;;;10.57;;
61054;SDS011;46939;48.940;8.258;2022-12-07T03:43:17;21.20;;;11.25;;
61054;SDS011;46939;48.940;8.258;2022-12-07T03:45:49;22.00;;;12.15;;
61054;SDS011;46939;48.940;8.258;2022-12-07T03:48:31;21.17;;;11.30;;
61054;SDS011;46939;48.940;8.258;2022-12-07T03:51:06;20.98;;;11.60;;
61054;SDS011;46939;48.940;8.258;2022-12-07T03:53:43;20.60;;;10.77;;
61054;SDS011;46939;48.940;8.258;2022-12-07T03:56:16;19.73;;;11.07;;
61054;SDS011;46939;48.940;8.258;2022-12-07T03:58:45;20.60;;;11.07;;
61054;SDS011;46939;48.940;8.258;2022-12-07T04:01:14;20.38;;;10.93;;
61054;SDS011;46939;48.940;8.258;2022-12-07T04:03:45;20.08;;;10.45;;
61054;SDS011;46939;48.940;8.258;2022-12-07T04:06:14;20.95;;;11.30;;
61054;SDS011;46939;48.940;8.258;2022-12-07T04:08:42;20.95;;;11.20;;
61054;SDS011;46939;48.940;8.258;2022-12-07T04:11:11;22.65;;;11.95;;
61054;SDS011;46939;48.940;8.258;2022-12-07T04:13:39;24.27;;;11.25;;
61054;SDS011;46939;48.940;8.258;2022-12-07T04:16:20;24.38;;;11.60;;
61054;SDS011;46939;48.940;8.258;2022-12-07T04:18:51;23.40;;;12.10;;
61054;SDS011;46939;48.940;8.258;2022-12-07T04:21:19;23.55;;;11.98;;
61054;SDS011;46939;48.940;8.258;2022-12-07T04:23:48;21.70;;;11.88;;
61054;SDS011;46939;48.940;8.258;2022-12-07T04:26:16;23.08;;;12.50;;
61054;SDS011;46939;48.940;8.258;2022-12-07T04:28:44;23.40;;;11.32;;
61054;SDS011;46939;48.940;8.258;2022-12-07T04:31:13;22.75;;;11.60;;
61054;SDS011;46939;48.940;8.258;2022-12-07T04:33:41;20.05;;;11.43;;
61054;SDS011;46939;48.940;8.258;2022-12-07T04:36:12;23.58;;;11.82;;
61054;SDS011;46939;48.940;8.258;2022-12-07T04:38:40;21.27;;;10.98;;
61054;SDS011;46939;48.940;8.258;2022-12-07T04:41:09;20.95;;;11.45;;
61054;SDS011;46939;48.940;8.258;2022-12-07T04:43:37;20.45;;;11.05;;
61054;SDS011;46939;48.940;8.258;2022-12-07T04:46:06;22.10;;;11.18;;
61054;SDS011;46939;48.940;8.258;2022-12-07T04:48:34;21.75;;;11.20;;
61054;SDS011;46939;48.940;8.258;2022-12-07T04:51:03;20.15;;;11.00;;
61054;SDS011;46939;48.940;8.258;2022-12-07T04:53:34;18.95;;;10.63;;
61054;SDS011;46939;48.940;8.258;2022-12-07T04:56:03;23.15;;;11.68;;
61054;SDS011;46939;48.940;8.258;2022-12-07T04:58:32;19.98;;;10.45;;
61054;SDS011;46939;48.940;8.258;2022-12-07T05:01:00;19.15;;;9.70;;
61054;SDS011;46939;48.940;8.258;2022-12-07T05:03:28;20.17;;;11.15;;
61054;SDS011;46939;48.940;8.258;2022-12-07T05:05:57;20.92;;;11.07;;
61054;SDS011;46939;48.940;8.258;2022-12-07T05:08:25;20.83;;;10.82;;
61054;SDS011;46939;48.940;8.258;2022-12-07T05:10:56;22.17;;;11.35;;
61054;SDS011;46939;48.940;8.258;2022-12-07T05:13:24;19.95;;;10.57;;
61054;SDS011;46939;48.940;8.258;2022-12-07T05:15:53;21.27;;;10.85;;
61054;SDS011;46939;48.940;8.258;2022-12-07T05:18:21;21.08;;;11.07;;
61054;SDS011;46939;48.940;8.258;2022-12-07T05:20:50;20.80;;;10.70;;
61054;SDS011;46939;48.940;8.258;2022-12-07T05:23:19;18.58;;;9.90;;
61054;SDS011;46939;48.940;8.258;2022-12-07T05:25:47;20.20;;;10.63;;
61054;SDS011;46939;48.940;8.258;2022-12-07T05:28:18;20.63;;;11.05;;
61054;SDS011;46939;48.940;8.258;2022-12-07T05:30:47;22.27;;;11.70;;
61054;SDS011;46939;48.940;8.258;2022-12-07T05:33:15;19.38;;;10.73;;
61054;SDS011;46939;48.940;8.258;2022-12-07T05:35:43;19.35;;;10.63;;
61054;SDS011;46939;48.940;8.258;2022-12-07T05:38:12;21.13;;;10.90;;
61054;SDS011;46939;48.940;8.258;2022-12-07T05:40:40;21.50;;;10.85;;
61054;SDS011;46939;48.940;8.258;2022-12-07T05:43:10;21.15;;;10.98;;
61054;SDS011;46939;48.940;8.258;2022-12-07T05:45:41;20.30;;;10.18;;
61054;SDS011;46939;48.940;8.258;2022-12-07T05:48:09;21.95;;;10.35;;
61054;SDS011;46939;48.940;8.258;2022-12-07T05:50:38;20.80;;;10.18;;
61054;SDS011;46939;48.940;8.258;2022-12-07T05:53:07;19.23;;;10.77;;
61054;SDS011;46939;48.940;8.258;2022-12-07T05:55:35;21.50;;;10.80;;
61054;SDS011;46939;48.940;8.258;2022-12-07T05:58:03;22.05;;;11.15;;
61054;SDS011;46939;48.940;8.258;2022-12-07T06:00:47;20.63;;;10.73;;
61054;SDS011;46939;48.940;8.258;2022-12-07T06:03:15;19.98;;;10.45;;
61054;SDS011;46939;48.940;8.258;2022-12-07T06:05:44;18.98;;;10.32;;
61054;SDS011;46939;48.940;8.258;2022-12-07T06:08:12;18.50;;;9.95;;
61054;SDS011;46939;48.940;8.258;2022-12-07T06:10:41;20.42;;;10.65;;
61054;SDS011;46939;48.940;8.258;2022-12-07T06:13:10;19.75;;;10.60;;
61054;SDS011;46939;48.940;8.258;2022-12-07T06:15:36;22.83;;;11.27;;
61054;SDS011;46939;48.940;8.258;2022-12-07T06:18:07;24.23;;;11.57;;
61054;SDS011;46939;48.940;8.258;2022-12-07T06:20:35;24.20;;;10.35;;
61054;SDS011;46939;48.940;8.258;2022-12-07T06:23:04;23.17;;;11.38;;
61054;SDS011;46939;48.940;8.258;2022-12-07T06:25:32;18.73;;;9.75;;
61054;SDS011;46939;48.940;8.258;2022-12-07T06:28:01;20.23;;;9.90;;
61054;SDS011;46939;48.940;8.258;2022-12-07T06:30:29;19.67;;;10.43;;
61054;SDS011;46939;48.940;8.258;2022-12-07T06:32:57;19.90;;;11.05;;
61054;SDS011;46939;48.940;8.258;2022-12-07T06:35:28;19.55;;;10.25;;
61054;SDS011;46939;48.940;8.258;2022-12-07T06:37:57;18.88;;;10.15;;
61054;SDS011;46939;48.940;8.258;2022-12-07T06:40:25;19.90;;;10.20;;
61054;SDS011;46939;48.940;8.258;2022-12-07T06:42:53;20.58;;;10.68;;
61054;SDS011;46939;48.940;8.258;2022-12-07T06:45:22;20.70;;;10.48;;
61054;SDS011;46939;48.940;8.258;2022-12-07T06:47:51;20.08;;;9.75;;
61054;SDS011;46939;48.940;8.258;2022-12-07T06:50:19;23.63;;;10.25;;
61054;SDS011;46939;48.940;8.258;2022-12-07T06:52:50;21.08;;;10.63;;
61054;SDS011;46939;48.940;8.258;2022-12-07T06:55:19;20.98;;;10.73;;
61054;SDS011;46939;48.940;8.258;2022-12-07T06:57:47;19.55;;;10.57;;
61054;SDS011;46939;48.940;8.258;2022-12-07T07:00:16;19.38;;;9.75;;
61054;SDS011;46939;48.940;8.258;2022-12-07T07:02:45;21.15;;;10.32;;
61054;SDS011;46939;48.940;8.258;2022-12-07T07:05:13;18.77;;;9.93;;
61054;SDS011;46939;48.940;8.258;2022-12-07T07:07:42;20.00;;;10.27;;
61054;SDS011;46939;48.940;8.258;2022-12-07T07:10:13;19.65;;;9.57;;
61054;SDS011;46939;48.940;8.258;2022-12-07T07:12:41;18.02;;;9.65;;
61054;SDS011;46939;48.940;8.258;2022-12-07T07:15:10;19.05;;;9.50;;
61054;SDS011;46939;48.940;8.258;2022-12-07T07:17:39;19.65;;;9.75;;
61054;SDS011;46939;48.940;8.258;2022-12-07T07:20:08;18.10;;;9.88;;
61054;SDS011;46939;48.940;8.258;2022-12-07T07:22:37;15.68;;;8.80;;
61054;SDS011;46939;48.940;8.258;2022-12-07T07:25:06;19.17;;;9.13;;
61054;SDS011;46939;48.940;8.258;2022-12-07T07:27:37;19.58;;;9.60;;
61054;SDS011;46939;48.940;8.258;2022-12-07T07:30:06;17.10;;;9.13;;
61054;SDS011;46939;48.940;8.258;2022-12-07T07:32:36;17.25;;;9.43;;
61054;SDS011;46939;48.940;8.258;2022-12-07T07:35:05;18.63;;;9.25;;
61054;SDS011;46939;48.940;8.258;2022-12-07T07:37:34;18.30;;;9.50;;
61054;SDS011;46939;48.940;8.258;2022-12-07T07:40:02;19.58;;;9.63;;
61054;SDS011;46939;48.940;8.258;2022-12-07T07:42:31;21.08;;;10.20;;
61054;SDS011;46939;48.940;8.258;2022-12-07T07:45:03;18.63;;;9.45;;
61054;SDS011;46939;48.940;8.258;2022-12-07T07:47:32;21.75;;;10.00;;
61054;SDS011;46939;48.940;8.258;2022-12-07T07:50:00;19.67;;;9.40;;
61054;SDS011;46939;48.940;8.258;2022-12-07T07:52:29;18.58;;;9.48;;
61054;SDS011;46939;48.940;8.258;2022-12-07T07:54:58;18.45;;;9.85;;
61054;SDS011;46939;48.940;8.258;2022-12-07T07:57:26;19.50;;;10.23;;
61054;SDS011;46939;48.940;8.258;2022-12-07T07:59:55;17.50;;;9.00;;
61054;SDS011;46939;48.940;8.258;2022-12-07T08:02:26;18.60;;;9.30;;
61054;SDS011;46939;48.940;8.258;2022-12-07T08:04:56;16.25;;;8.50;;
61054;SDS011;46939;48.940;8.258;2022-12-07T08:07:24;17.83;;;9.52;;
61054;SDS011;46939;48.940;8.258;2022-12-07T08:09:53;19.33;;;9.30;;
61054;SDS011;46939;48.940;8.258;2022-12-07T08:12:21;19.58;;;8.93;;
61054;SDS011;46939;48.940;8.258;2022-12-07T08:14:50;15.98;;;8.68;;
61054;SDS011;46939;48.940;8.258;2022-12-07T08:17:18;18.48;;;9.55;;
61054;SDS011;46939;48.940;8.258;2022-12-07T08:19:49;16.63;;;9.05;;
61054;SDS011;46939;48.940;8.258;2022-12-07T08:22:17;17.10;;;9.02;;
61054;SDS011;46939;48.940;8.258;2022-12-07T08:24:46;20.23;;;9.65;;
61054;SDS011;46939;48.940;8.258;2022-12-07T08:27:14;16.75;;;8.32;;
61054;SDS011;46939;48.940;8.258;2022-12-07T08:29:43;16.33;;;8.73;;
61054;SDS011;46939;48.940;8.258;2022-12-07T08:32:11;18.20;;;8.32;;
61054;SDS011;46939;48.940;8.258;2022-12-07T08:34:39;16.42;;;8.48;;
61054;SDS011;46939;48.940;8.258;2022-12-07T08:37:10;15.68;;;8.40;;
61054;SDS011;46939;48.940;8.258;2022-12-07T08:39:38;16.48;;;7.88;;
61054;SDS011;46939;48.940;8.258;2022-12-07T08:42:07;15.15;;;8.73;;
61054;SDS011;46939;48.940;8.258;2022-12-07T08:44:35;16.13;;;8.35;;
61054;SDS011;46939;48.940;8.258;2022-12-07T08:47:05;16.67;;;7.88;;
61054;SDS011;46939;48.940;8.258;2022-12-07T08:49:36;16.15;;;8.30;;
61054;SDS011;46939;48.940;8.258;2022-12-07T08:52:09;16.02;;;8.88;;
61054;SDS011;46939;48.940;8.258;2022-12-07T08:54:38;17.52;;;8.50;;
61054;SDS011;46939;48.940;8.258;2022-12-07T08:57:08;16.38;;;8.57;;
61054;SDS011;46939;48.940;8.258;2022-12-07T08:59:38;18.40;;;8.75;;
61054;SDS011;46939;48.940;8.258;2022-12-07T09:02:06;16.45;;;8.63;;
61054;SDS011;46939;48.940;8.258;2022-12-07T09:04:35;17.20;;;9.27;;
61054;SDS011;46939;48.940;8.258;2022-12-07T09:07:03;16.77;;;9.13;;
61054;SDS011;46939;48.940;8.258;2022-12-07T09:09:34;16.85;;;9.00;;
61054;SDS011;46939;48.940;8.258;2022-12-07T09:12:03;21.30;;;9.55;;
61054;SDS011;46939;48.940;8.258;2022-12-07T09:14:32;18.50;;;9.45;;
61054;SDS011;46939;48.940;8.258;2022-12-07T09:17:04;17.17;;;9.10;;
61054;SDS011;46939;48.940;8.258;2022-12-07T09:19:34;14.25;;;7.70;;
61054;SDS011;46939;48.940;8.258;2022-12-07T09:22:02;18.88;;;9.10;;
61054;SDS011;46939;48.940;8.258;2022-12-07T09:24:35;16.25;;;8.77;;
61054;SDS011;46939;48.940;8.258;2022-12-07T09:27:03;17.27;;;8.45;;
61054;SDS011;46939;48.940;8.258;2022-12-07T09:29:32;17.50;;;9.25;;
61054;SDS011;46939;48.940;8.258;2022-12-07T09:32:00;16.20;;;8.80;;
61054;SDS011;46939;48.940;8.258;2022-12-07T09:34:30;16.60;;;8.93;;
61054;SDS011;46939;48.940;8.258;2022-12-07T09:36:58;15.75;;;8.27;;
61054;SDS011;46939;48.940;8.258;2022-12-07T09:39:29;18.45;;;8.75;;
61054;SDS011;46939;48.940;8.258;2022-12-07T09:42:02;15.80;;;8.63;;
61054;SDS011;46939;48.940;8.258;2022-12-07T09:44:34;17.38;;;8.60;;
61054;SDS011;46939;48.940;8.258;2022-12-07T09:47:03;17.70;;;8.35;;
61054;SDS011;46939;48.940;8.258;2022-12-07T09:49:32;17.17;;;9.10;;
61054;SDS011;46939;48.940;8.258;2022-12-07T09:52:01;19.60;;;9.38;;
61054;SDS011;46939;48.940;8.258;2022-12-07T09:54:34;16.92;;;9.25;;
61054;SDS011;46939;48.940;8.258;2022-12-07T09:57:10;17.00;;;8.38;;
61054;SDS011;46939;48.940;8.258;2022-12-07T09:59:39;18.13;;;8.55;;
61054;SDS011;46939;48.940;8.258;2022-12-07T10:02:22;16.48;;;8.63;;
61054;SDS011;46939;48.940;8.258;2022-12-07T10:04:53;17.05;;;8.32;;
61054;SDS011;46939;48.940;8.258;2022-12-07T10:07:21;18.17;;;8.73;;
61054;SDS011;46939;48.940;8.258;2022-12-07T10:09:50;16.27;;;8.77;;
61054;SDS011;46939;48.940;8.258;2022-12-07T10:12:21;15.43;;;8.27;;
61054;SDS011;46939;48.940;8.258;2022-12-07T10:14:53;15.60;;;7.43;;
61054;SDS011;46939;48.940;8.258;2022-12-07T10:17:28;16.02;;;8.25;;
61054;SDS011;46939;48.940;8.258;2022-12-07T10:20:11;16.05;;;8.20;;
61054;SDS011;46939;48.940;8.258;2022-12-07T10:22:56;16.73;;;8.20;;
61054;SDS011;46939;48.940;8.258;2022-12-07T10:25:27;15.07;;;7.88;;
61054;SDS011;46939;48.940;8.258;2022-12-07T10:28:00;14.57;;;7.75;;
61054;SDS011;46939;48.940;8.258;2022-12-07T10:30:47;14.70;;;7.85;;
61054;SDS011;46939;48.940;8.258;2022-12-07T10:33:32;17.27;;;7.93;;
61054;SDS011;46939;48.940;8.258;2022-12-07T10:36:15;13.93;;;7.47;;
61054;SDS011;46939;48.940;8.258;2022-12-07T10:38:46;16.65;;;8.13;;
61054;SDS011;46939;48.940;8.258;2022-12-07T10:41:16;14.57;;;8.20;;
61054;SDS011;46939;48.940;8.258;2022-12-07T10:43:51;15.23;;;7.88;;
61054;SDS011;46939;48.940;8.258;2022-12-07T10:46:31;15.05;;;8.13;;
61054;SDS011;46939;48.940;8.258;2022-12-07T10:52:13;20.85;;;7.88;;
61054;SDS011;46939;48.940;8.258;2022-12-07T10:54:52;17.70;;;9.23;;
61054;SDS011;46939;48.940;8.258;2022-12-07T10:57:37;17.08;;;8.82;;
61054;SDS011;46939;48.940;8.258;2022-12-07T11:00:19;16.65;;;8.48;;
61054;SDS011;46939;48.940;8.258;2022-12-07T11:05:54;15.63;;;8.52;;
61054;SDS011;46939;48.940;8.258;2022-12-07T11:08:35;19.00;;;8.32;;
61054;SDS011;46939;48.940;8.258;2022-12-07T11:11:13;24.00;;;9.77;;
61054;SDS011;46939;48.940;8.258;2022-12-07T11:13:47;21.17;;;9.43;;
61054;SDS011;46939;48.940;8.258;2022-12-07T11:16:31;19.08;;;9.38;;
61054;SDS011;46939;48.940;8.258;2022-12-07T11:19:14;17.40;;;9.40;;
61054;SDS011;46939;48.940;8.258;2022-12-07T11:21:51;16.10;;;8.90;;
61054;SDS011;46939;48.940;8.258;2022-12-07T11:24:25;21.13;;;8.85;;
61054;SDS011;46939;48.940;8.258;2022-12-07T11:27:02;19.10;;;9.35;;
61054;SDS011;46939;48.940;8.258;2022-12-07T11:29:49;18.23;;;9.48;;
61054;SDS011;46939;48.940;8.258;2022-12-07T11:32:31;17.70;;;8.88;;
61054;SDS011;46939;48.940;8.258;2022-12-07T11:35:15;17.98;;;9.63;;
61054;SDS011;46939;48.940;8.258;2022-12-07T11:37:55;20.30;;;10.00;;
61054;SDS011;46939;48.940;8.258;2022-12-07T11:40:28;17.45;;;9.18;;
61054;SDS011;46939;48.940;8.258;2022-12-07T11:43:01;19.90;;;9.43;;
61054;SDS011;46939;48.940;8.258;2022-12-07T11:45:33;22.35;;;9.88;;
61054;SDS011;46939;48.940;8.258;2022-12-07T11:48:09;23.38;;;10.30;;
61054;SDS011;46939;48.940;8.258;2022-12-07T11:50:42;16.85;;;8.55;;
61054;SDS011;46939;48.940;8.258;2022-12-07T11:53:15;20.45;;;9.48;;
61054;SDS011;46939;48.940;8.258;2022-12-07T11:55:47;19.83;;;10.00;;
61054;SDS011;46939;48.940;8.258;2022-12-07T11:58:33;18.75;;;9.43;;
61054;SDS011;46939;48.940;8.258;2022-12-07T12:01:11;21.38;;;9.50;;
61054;SDS011;46939;48.940;8.258;2022-12-07T12:03:51;17.38;;;9.70;;
61054;SDS011;46939;48.940;8.258;2022-12-07T12:06:21;18.13;;;9.73;;
61054;SDS011;46939;48.940;8.258;2022-12-07T12:08:51;21.90;;;10.30;;
61054;SDS011;46939;48.940;8.258;2022-12-07T12:11:28;17.67;;;9.73;;
61054;SDS011;46939;48.940;8.258;2022-12-07T12:14:17;22.60;;;10.20;;
61054;SDS011;46939;48.940;8.258;2022-12-07T12:20:06;18.30;;;9.88;;
61054;SDS011;46939;48.940;8.258;2022-12-07T12:22:48;24.40;;;9.77;;
61054;SDS011;46939;48.940;8.258;2022-12-07T12:25:21;17.65;;;9.43;;
61054;SDS011;46939;48.940;8.258;2022-12-07T12:27:53;18.27;;;9.32;;
61054;SDS011;46939;48.940;8.258;2022-12-07T12:30:26;21.17;;;9.57;;
61054;SDS011;46939;48.940;8.258;2022-12-07T12:33:03;19.65;;;9.57;;
61054;SDS011;46939;48.940;8.258;2022-12-07T12:35:37;17.98;;;9.73;;
61054;SDS011;46939;48.940;8.258;2022-12-07T12:40:58;15.65;;;8.90;;
61054;SDS011;46939;48.940;8.258;2022-12-07T12:55:22;18.52;;;9.38;;
61054;SDS011;46939;48.940;8.258;2022-12-07T13:03:41;18.08;;;9.27;;
61054;SDS011;46939;48.940;8.258;2022-12-07T13:06:31;19.05;;;8.77;;
61054;SDS011;46939;48.940;8.258;2022-12-07T13:09:03;16.92;;;9.43;;
61054;SDS011;46939;48.940;8.258;2022-12-07T13:11:44;17.35;;;9.77;;
61054;SDS011;46939;48.940;8.258;2022-12-07T13:17:07;19.42;;;9.23;;
61054;SDS011;46939;48.940;8.258;2022-12-07T13:22:39;17.48;;;8.65;;
61054;SDS011;46939;48.940;8.258;2022-12-07T13:25:11;16.25;;;8.85;;
61054;SDS011;46939;48.940;8.258;2022-12-07T13:27:50;17.77;;;8.40;;
61054;SDS011;46939;48.940;8.258;2022-12-07T13:30:24;16.98;;;8.13;;
61054;SDS011;46939;48.940;8.258;2022-12-07T13:32:54;14.18;;;7.90;;
61054;SDS011;46939;48.940;8.258;2022-12-07T13:35:30;14.73;;;8.07;;
61054;SDS011;46939;48.940;8.258;2022-12-07T13:38:03;13.35;;;7.70;;
61054;SDS011;46939;48.940;8.258;2022-12-07T13:40:33;15.15;;;8.23;;
61054;SDS011;46939;48.940;8.258;2022-12-07T13:43:12;14.48;;;7.97;;
61054;SDS011;46939;48.940;8.258;2022-12-07T13:45:43;14.77;;;8.00;;
61054;SDS011;46939;48.940;8.258;2022-12-07T13:48:20;17.67;;;8.35;;
61054;SDS011;46939;48.940;8.258;2022-12-07T13:50:52;24.55;;;8.05;;
61054;SDS011;46939;48.940;8.258;2022-12-07T13:53:22;16.17;;;8.10;;
61054;SDS011;46939;48.940;8.258;2022-12-07T13:55:53;13.25;;;7.45;;
61054;SDS011;46939;48.940;8.258;2022-12-07T13:58:24;13.70;;;7.68;;
61054;SDS011;46939;48.940;8.258;2022-12-07T14:00:54;16.67;;;8.05;;
61054;SDS011;46939;48.940;8.258;2022-12-07T14:03:30;14.15;;;6.88;;
61054;SDS011;46939;48.940;8.258;2022-12-07T14:06:13;13.82;;;7.00;;
61054;SDS011;46939;48.940;8.258;2022-12-07T14:08:43;11.50;;;6.25;;
61054;SDS011;46939;48.940;8.258;2022-12-07T14:11:16;13.27;;;7.07;;
61054;SDS011;46939;48.940;8.258;2022-12-07T14:13:59;13.48;;;7.32;;
61054;SDS011;46939;48.940;8.258;2022-12-07T14:16:29;13.00;;;6.78;;
61054;SDS011;46939;48.940;8.258;2022-12-07T14:19:00;12.10;;;6.55;;
61054;SDS011;46939;48.940;8.258;2022-12-07T14:21:30;13.60;;;7.10;;
61054;SDS011;46939;48.940;8.258;2022-12-07T14:24:11;13.02;;;7.07;;
61054;SDS011;46939;48.940;8.258;2022-12-07T14:26:44;12.60;;;7.40;;
61054;SDS011;46939;48.940;8.258;2022-12-07T14:29:31;12.80;;;7.15;;
61054;SDS011;46939;48.940;8.258;2022-12-07T14:32:11;14.77;;;7.10;;
61054;SDS011;46939;48.940;8.258;2022-12-07T14:34:54;12.63;;;6.75;;
61054;SDS011;46939;48.940;8.258;2022-12-07T14:37:28;12.13;;;6.97;;
61054;SDS011;46939;48.940;8.258;2022-12-07T14:39:57;14.98;;;7.07;;
61054;SDS011;46939;48.940;8.258;2022-12-07T14:42:27;13.38;;;7.15;;
61054;SDS011;46939;48.940;8.258;2022-12-07T14:45:00;13.05;;;7.30;;
61054;SDS011;46939;48.940;8.258;2022-12-07T14:47:28;14.98;;;7.53;;
61054;SDS011;46939;48.940;8.258;2022-12-07T14:49:57;12.98;;;7.03;;
61054;SDS011;46939;48.940;8.258;2022-12-07T14:52:28;13.30;;;6.85;;
61054;SDS011;46939;48.940;8.258;2022-12-07T14:54:57;15.52;;;7.90;;
61054;SDS011;46939;48.940;8.258;2022-12-07T14:57:26;14.18;;;7.03;;
61054;SDS011;46939;48.940;8.258;2022-12-07T14:59:54;14.57;;;8.35;;
61054;SDS011;46939;48.940;8.258;2022-12-07T15:02:25;13.35;;;7.32;;
61054;SDS011;46939;48.940;8.258;2022-12-07T15:04:54;13.43;;;7.28;;
61054;SDS011;46939;48.940;8.258;2022-12-07T15:07:22;14.52;;;7.20;;
61054;SDS011;46939;48.940;8.258;2022-12-07T15:09:51;12.32;;;7.32;;
61054;SDS011;46939;48.940;8.258;2022-12-07T15:12:20;11.52;;;6.68;;
61054;SDS011;46939;48.940;8.258;2022-12-07T15:14:50;16.33;;;7.50;;
61054;SDS011;46939;48.940;8.258;2022-12-07T15:17:18;12.02;;;6.82;;
61054;SDS011;46939;48.940;8.258;2022-12-07T15:19:49;17.00;;;7.30;;
61054;SDS011;46939;48.940;8.258;2022-12-07T15:22:18;14.60;;;7.05;;
61054;SDS011;46939;48.940;8.258;2022-12-07T15:24:46;14.90;;;7.32;;
61054;SDS011;46939;48.940;8.258;2022-12-07T15:27:14;13.30;;;7.80;;
61054;SDS011;46939;48.940;8.258;2022-12-07T15:29:43;13.77;;;7.00;;
61054;SDS011;46939;48.940;8.258;2022-12-07T15:32:12;15.65;;;8.07;;
61054;SDS011;46939;48.940;8.258;2022-12-07T15:34:40;14.30;;;7.22;;
61054;SDS011;46939;48.940;8.258;2022-12-07T15:37:11;13.70;;;7.45;;